Briefing drone pour Coulounieix-chamiers

Rechercher une autre localisation

Conditions de vol :


Nous sommes le : Mercredi 24 avril 2024
Il est 18:33 UTC (20:33 LT)

Lever de soleil : 04:29 UTC (06:29 LT)
Coucher de soleil : 19:21 UTC (21:21 LT)

Météo

L'essentiel des conditions de vol

VIGILANCE MÉTÉO FRANCE - Dordogne (24)
Pas de vigilances particulieres
METAR de LFBX
LFBX 241830Z AUTO 00000KT CAVOK 11/05 Q1015

Date d'émission: 24/04/2024
Heure d'émission: 18:30 UTC
Vent: Calme
Visibilité horizontale: > 10 km
Plafond : Plafond et visibilité OK (CAVOK)
Température: 11 °C
Point de rosée: 5 °C
Humidité: 67%
Pression (QNH): 1015 hPa
Prévision 24h pour Perigueux (1 km)
Vent : 257° pour 3 KT (12 km/h)
Temperature Maxi: 13 °C
Temperature Min: 13 °C
Humidité : 83%
Condition : Légère pluie


WEBCAM POUR COULOUNIEIX-CHAMIERS

Réglementation

Voler en sécurité

CARTES AERONAUTIQUE 1/500.000
CARTE AZBA (Reseau basse altitude)
CARTES VAC (LFBX)
SUP AIP




Chargement des AIP...
NOTAM (COULOUNIEIX-CHAMIERS + Terrain à proximité / FIR )




Chargement des NOTAMS...
CONTACT PREFECTURE 24
Dordogne (24) : [email protected]


Avertissement : Les données mises à disposition sont indicatives. Oxygène Drone ne pourra être tenu responsable de dégâts causés aux biens et aux personnes.